createdAt,value
2018-09-09T06:57:23.330Z,14.51
2018-09-09T06:58:30.945Z,14.63
2018-09-09T06:59:39.088Z,14.86
2018-09-09T07:00:47.058Z,14.99
2018-09-09T07:01:55.800Z,15.18
2018-09-09T07:03:03.593Z,15.48
2018-09-09T07:04:12.150Z,15.90
2018-09-09T07:05:19.846Z,16.09
2018-09-09T07:06:28.469Z,16.41
2018-09-09T07:07:36.496Z,16.83
2018-09-09T07:08:44.591Z,17.27
2018-09-09T07:09:52.078Z,17.56
2018-09-09T07:11:00.364Z,17.54
2018-09-09T07:12:08.162Z,17.52
2018-09-09T07:13:16.148Z,17.73
2018-09-09T07:14:24.621Z,18.19
2018-09-09T07:15:32.948Z,18.83
2018-09-09T07:16:40.645Z,19.30
2018-09-09T07:17:48.443Z,19.67
2018-09-09T07:18:56.490Z,19.96
2018-09-09T07:20:04.563Z,20.32
2018-09-09T07:21:12.716Z,20.80
2018-09-09T07:22:21.141Z,21.04
2018-09-09T07:23:28.767Z,21.43
2018-09-09T07:24:36.834Z,21.66
2018-09-09T07:25:45.406Z,21.94
2018-09-09T07:26:53.398Z,22.16
2018-09-09T07:28:03.777Z,22.30
2018-09-09T07:29:11.724Z,22.61
2018-09-09T07:30:19.790Z,22.78
2018-09-09T07:31:28.127Z,22.92
2018-09-09T07:32:35.967Z,23.20
2018-09-09T07:33:44.028Z,23.20
2018-09-09T07:34:52.146Z,23.45
2018-09-09T07:36:00.253Z,23.49
2018-09-09T07:38:25.129Z,23.77
2018-09-09T07:39:34.681Z,23.67
2018-09-09T07:40:43.660Z,23.59
2018-09-09T07:41:52.879Z,23.76
2018-09-09T07:43:02.219Z,23.79
2018-09-09T07:44:14.255Z,23.91
2018-09-09T07:45:17.646Z,23.89
2018-09-09T07:46:25.760Z,23.95
2018-09-09T07:47:35.358Z,24.03
2018-09-09T07:48:42.168Z,23.96
2018-09-09T07:49:49.963Z,24.11
2018-09-09T07:50:58.140Z,24.22
2018-09-09T07:52:07.045Z,24.29
2018-09-09T07:53:14.538Z,24.34
2018-09-09T07:54:22.772Z,24.56
2018-09-09T07:55:37.461Z,24.59
2018-09-09T07:56:38.786Z,24.59
2018-09-09T07:57:47.021Z,24.62
2018-09-09T07:58:56.816Z,24.58
2018-09-09T08:01:18.798Z,24.66
2018-09-09T08:02:27.054Z,24.81
2018-09-09T08:03:35.124Z,24.75
2018-09-09T08:04:47.238Z,24.78
2018-09-09T08:05:55.856Z,24.86
2018-09-09T08:07:03.700Z,24.88
2018-09-09T08:08:11.461Z,24.92
2018-09-09T08:09:19.547Z,24.97
2018-09-09T08:10:27.681Z,24.96
2018-09-09T08:11:35.700Z,25.00
2018-09-09T08:12:43.796Z,24.96
2018-09-09T08:13:52.145Z,24.78
2018-09-09T08:14:59.899Z,25.09
2018-09-09T08:16:07.992Z,25.11
2018-09-09T08:17:17.114Z,25.21
2018-09-09T08:18:24.258Z,25.15
2018-09-09T08:19:32.449Z,24.92
2018-09-09T08:20:40.499Z,24.93
2018-09-09T08:21:48.588Z,24.63
2018-09-09T08:22:56.674Z,24.74
2018-09-09T08:24:04.729Z,24.88
2018-09-09T08:25:12.798Z,24.81
2018-09-09T08:26:20.905Z,24.74
2018-09-09T08:27:29.052Z,24.75
2018-09-09T08:28:37.080Z,24.79
2018-09-09T08:29:46.155Z,24.62
2018-09-09T08:30:53.160Z,24.81
2018-09-09T08:32:01.251Z,24.62
2018-09-09T08:33:09.340Z,24.77
2018-09-09T08:34:17.422Z,24.78
2018-09-09T08:35:25.522Z,24.77
2018-09-09T08:36:33.569Z,24.74
2018-09-09T08:37:41.873Z,24.82
2018-09-09T08:38:49.922Z,24.79
2018-09-09T08:39:58.036Z,24.41
2018-09-09T08:41:06.095Z,24.07
2018-09-09T08:42:14.155Z,23.85
2018-09-09T08:43:22.338Z,23.42
2018-09-09T08:44:30.318Z,23.17
2018-09-09T08:45:38.383Z,23.11
2018-09-09T08:46:46.460Z,22.96
2018-09-09T08:47:54.523Z,22.74
2018-09-09T08:49:02.593Z,22.61
2018-09-09T08:50:10.687Z,22.47
2018-09-09T08:51:18.759Z,22.31
2018-09-09T08:52:26.838Z,22.16
2018-09-09T08:53:34.902Z,21.94
2018-09-09T08:54:42.984Z,21.96
2018-09-09T08:55:51.056Z,21.91
2018-09-09T08:57:01.141Z,21.78
2018-09-09T08:58:09.210Z,21.78
2018-09-09T08:59:17.343Z,21.72
2018-09-09T09:00:25.372Z,21.70
2018-09-09T09:01:33.441Z,21.66
2018-09-09T09:02:44.148Z,21.60
2018-09-09T09:03:52.200Z,21.59
2018-09-09T09:05:00.253Z,21.47
2018-09-09T09:06:08.382Z,21.38
2018-09-09T09:07:16.450Z,21.38
2018-09-09T09:08:24.497Z,21.37
2018-09-09T09:09:32.543Z,21.26
2018-09-09T09:10:40.631Z,21.30
2018-09-09T09:11:48.708Z,21.32
2018-09-09T09:12:56.776Z,21.40
2018-09-09T09:14:04.816Z,21.30
2018-09-09T09:15:12.898Z,21.35
2018-09-09T09:16:20.969Z,21.40
2018-09-09T09:17:29.080Z,21.40
2018-09-09T09:18:37.497Z,21.47
2018-09-09T09:19:45.188Z,21.47
2018-09-09T09:20:53.272Z,21.37
2018-09-09T09:22:01.344Z,21.48
2018-09-09T09:23:09.396Z,21.32
2018-09-09T09:24:17.476Z,21.38
2018-09-09T09:25:25.547Z,21.35
2018-09-09T09:26:33.605Z,21.32
2018-09-09T09:27:41.663Z,21.32
2018-09-09T09:28:49.748Z,21.43
2018-09-09T09:29:57.795Z,21.54
2018-09-09T09:31:05.893Z,21.65
2018-09-09T09:32:14.049Z,21.60
2018-09-09T09:33:22.034Z,21.69
2018-09-09T09:34:30.098Z,21.77
2018-09-09T09:35:38.195Z,21.72
2018-09-09T09:36:46.240Z,21.77
2018-09-09T09:37:54.300Z,21.80
2018-09-09T09:39:02.388Z,21.80
2018-09-09T09:40:10.448Z,21.83
2018-09-09T09:41:19.117Z,21.81
2018-09-09T09:42:27.400Z,21.94
2018-09-09T09:43:35.447Z,22.00
2018-09-09T09:44:43.551Z,22.08
2018-09-09T09:45:51.606Z,22.03
2018-09-09T09:46:59.787Z,22.08
2018-09-09T09:48:07.739Z,22.08
2018-09-09T09:49:15.831Z,22.22
2018-09-09T09:50:23.895Z,22.34
2018-09-09T09:51:31.996Z,22.31
2018-09-09T09:52:40.033Z,22.26
2018-09-09T09:53:48.310Z,22.30
2018-09-09T09:54:56.452Z,22.28
2018-09-09T09:56:04.460Z,22.43
2018-09-09T09:57:12.909Z,22.49
2018-09-09T09:58:20.889Z,22.49
2018-09-09T09:59:28.675Z,22.52
2018-09-09T10:00:36.712Z,22.56
2018-09-09T10:01:45.068Z,22.62
2018-09-09T10:02:59.145Z,22.59
2018-09-09T10:04:01.229Z,22.70
2018-09-09T10:05:09.000Z,22.86
2018-09-09T10:06:17.075Z,22.77
2018-09-09T10:07:25.144Z,22.76
2018-09-09T10:08:33.435Z,22.84
2018-09-09T10:09:41.501Z,22.86
2018-09-09T10:10:49.771Z,22.91
2018-09-09T10:11:57.859Z,22.92
2018-09-09T10:13:05.904Z,22.98
2018-09-09T10:14:13.988Z,22.95
2018-09-09T10:15:22.060Z,22.96
2018-09-09T10:16:30.128Z,22.99
2018-09-09T10:17:38.279Z,22.95
2018-09-09T10:18:46.278Z,22.98
2018-09-09T10:19:54.419Z,22.98
2018-09-09T10:21:02.382Z,22.99
2018-09-09T10:22:10.569Z,23.06
2018-09-09T10:23:18.562Z,23.01
2018-09-09T10:24:26.628Z,23.07
2018-09-09T10:25:34.697Z,23.11
2018-09-09T10:26:42.733Z,23.16
2018-09-09T10:27:50.829Z,23.21
2018-09-09T10:28:58.879Z,23.36
2018-09-09T10:30:07.015Z,23.37
2018-09-09T10:31:15.038Z,23.40
2018-09-09T10:32:23.083Z,23.34
2018-09-09T10:33:31.197Z,23.45
2018-09-09T10:34:39.238Z,23.37
2018-09-09T10:35:47.933Z,23.48
2018-09-09T10:36:56.000Z,23.55
2018-09-09T10:38:04.045Z,23.66
2018-09-09T10:39:12.133Z,23.66
2018-09-09T10:40:20.203Z,23.63
2018-09-09T10:41:28.564Z,23.66
2018-09-09T10:42:36.338Z,23.73
2018-09-09T10:43:44.406Z,23.63
2018-09-09T10:44:52.502Z,23.81
2018-09-09T10:46:00.816Z,23.86
2018-09-09T10:47:08.888Z,23.88
2018-09-09T10:48:17.200Z,24.04
2018-09-09T10:49:25.357Z,24.11
2018-09-09T10:50:33.329Z,24.10
2018-09-09T10:51:41.496Z,24.06
2018-09-09T10:52:49.200Z,24.10
2018-09-09T10:53:57.291Z,24.13
2018-09-09T10:55:05.313Z,24.22
2018-09-09T10:56:13.400Z,24.26
2018-09-09T10:57:21.489Z,24.11
2018-09-09T10:58:29.535Z,24.10
2018-09-09T10:59:37.591Z,24.01
2018-09-09T11:00:45.683Z,24.10
2018-09-09T11:01:53.742Z,24.14
2018-09-09T11:03:01.811Z,24.28
2018-09-09T11:04:09.909Z,24.31
2018-09-09T11:05:18.260Z,24.38
2018-09-09T11:06:26.034Z,24.50
2018-09-09T11:07:34.119Z,24.48
2018-09-09T11:08:42.191Z,24.53
2018-09-09T11:09:50.256Z,24.58
2018-09-09T11:10:58.309Z,24.51
2018-09-09T11:12:06.400Z,24.47
2018-09-09T11:13:15.037Z,24.43
2018-09-09T11:14:22.717Z,24.46
2018-09-09T11:15:30.817Z,24.48
2018-09-09T11:16:38.885Z,24.59
2018-09-09T11:17:46.956Z,24.71
2018-09-09T11:18:55.039Z,24.61
2018-09-09T11:20:03.098Z,24.59
2018-09-09T11:21:11.189Z,24.79
2018-09-09T11:22:19.240Z,24.77
2018-09-09T11:23:27.308Z,24.75
2018-09-09T11:24:35.446Z,24.85
2018-09-09T11:25:43.422Z,24.88
2018-09-09T11:26:51.513Z,24.86
2018-09-09T11:27:59.595Z,24.89
2018-09-09T11:29:07.658Z,24.96
2018-09-09T11:30:15.735Z,24.96
2018-09-09T11:31:23.787Z,25.00
2018-09-09T11:32:31.880Z,24.99
2018-09-09T11:33:39.942Z,24.94
2018-09-09T11:34:48.017Z,24.99
2018-09-09T11:35:56.083Z,24.92
2018-09-09T11:37:04.191Z,24.96
2018-09-09T11:38:12.257Z,24.97
2018-09-09T11:39:20.558Z,24.96
2018-09-09T11:40:28.376Z,25.11
2018-09-09T11:41:36.444Z,25.09
2018-09-09T11:42:44.529Z,25.12
2018-09-09T11:43:52.575Z,25.18
2018-09-09T11:45:00.684Z,25.18
2018-09-09T11:46:08.935Z,25.14
2018-09-09T11:47:17.017Z,25.14
2018-09-09T11:48:25.119Z,25.19
2018-09-09T11:49:33.172Z,25.14
2018-09-09T11:50:41.238Z,25.21
2018-09-09T11:51:49.303Z,25.07
2018-09-09T11:52:57.390Z,25.12
2018-09-09T11:54:05.445Z,25.18
2018-09-09T11:55:14.216Z,25.07
2018-09-09T11:56:22.627Z,25.14
2018-09-09T11:57:29.676Z,25.11
2018-09-09T11:58:37.725Z,25.06
2018-09-09T11:59:45.796Z,25.07
2018-09-09T12:00:53.888Z,25.11
2018-09-09T12:02:01.980Z,25.15
2018-09-09T12:03:10.028Z,25.09
2018-09-09T12:04:18.096Z,25.09
2018-09-09T12:05:26.133Z,25.15
2018-09-09T12:06:34.231Z,25.12
2018-09-09T12:07:42.306Z,25.18
2018-09-09T12:08:50.376Z,25.09
2018-09-09T12:09:58.442Z,25.11
2018-09-09T12:11:06.526Z,25.14
2018-09-09T12:12:14.600Z,25.18
2018-09-09T12:13:22.637Z,25.14
2018-09-09T12:14:30.737Z,25.18
2018-09-09T12:15:39.090Z,25.25
2018-09-09T12:16:46.880Z,25.34
2018-09-09T12:17:54.939Z,25.26
2018-09-09T12:19:02.987Z,25.29
2018-09-09T12:20:11.187Z,25.18
2018-09-09T12:21:19.147Z,25.34
2018-09-09T12:22:27.227Z,25.30
2018-09-09T12:23:35.362Z,25.40
2018-09-09T12:24:43.338Z,25.40
2018-09-09T12:25:51.460Z,25.39
2018-09-09T12:26:59.507Z,25.39
2018-09-09T12:28:07.839Z,25.52
2018-09-09T12:29:15.861Z,25.56
2018-09-09T12:30:23.954Z,25.56
2018-09-09T12:31:32.215Z,25.61
2018-09-09T12:32:40.315Z,25.59
2018-09-09T12:33:48.542Z,25.59
2018-09-09T12:34:56.621Z,25.52
2018-09-09T12:36:04.683Z,25.61
2018-09-09T12:37:12.766Z,25.55
2018-09-09T12:38:20.818Z,25.61
2018-09-09T12:39:28.890Z,25.83
2018-09-09T12:40:36.988Z,25.76
2018-09-09T12:41:45.044Z,25.89
2018-09-09T12:42:53.120Z,25.88
2018-09-09T12:44:01.199Z,25.99
2018-09-09T12:45:09.242Z,25.83
2018-09-09T12:46:17.344Z,25.85
2018-09-09T12:47:25.411Z,25.83
2018-09-09T12:48:33.494Z,25.76
2018-09-09T12:49:41.554Z,25.85
2018-09-09T12:50:49.893Z,25.88
2018-09-09T12:51:57.756Z,25.88
2018-09-09T12:53:05.824Z,25.88
2018-09-09T12:54:13.852Z,25.85
2018-09-09T12:55:21.906Z,25.83
2018-09-09T12:56:30.035Z,25.77
2018-09-09T12:57:38.039Z,25.83
2018-09-09T12:58:46.127Z,25.81
2018-09-09T12:59:54.394Z,25.92
2018-09-09T13:01:02.452Z,25.86
2018-09-09T13:02:10.631Z,25.89
2018-09-09T13:03:18.667Z,26.04
2018-09-09T13:04:26.692Z,26.06
2018-09-09T13:05:34.769Z,26.01
2018-09-09T13:06:42.800Z,25.98
2018-09-09T13:07:50.904Z,25.89
2018-09-09T13:08:59.342Z,25.85
2018-09-09T13:10:07.043Z,25.88
2018-09-09T13:11:15.949Z,25.80
2018-09-09T13:12:23.184Z,25.67
2018-09-09T13:13:31.518Z,25.56
2018-09-09T13:14:39.523Z,25.67
2018-09-09T13:15:47.618Z,25.71
2018-09-09T13:16:55.668Z,25.71
2018-09-09T13:18:03.747Z,25.70
2018-09-09T13:19:11.820Z,25.71
2018-09-09T13:20:19.914Z,25.70
2018-09-09T13:21:27.938Z,25.76
2018-09-09T13:22:36.599Z,25.68
2018-09-09T13:23:44.103Z,25.71
2018-09-09T13:24:52.472Z,25.59
2018-09-09T13:26:00.459Z,25.68
2018-09-09T13:27:09.663Z,25.70
2018-09-09T13:28:16.605Z,25.71
2018-09-09T13:29:24.673Z,25.73
2018-09-09T13:30:33.085Z,25.71
2018-09-09T13:31:40.812Z,25.68
2018-09-09T13:32:49.224Z,25.68
2018-09-09T13:33:57.221Z,25.59
2018-09-09T13:35:05.666Z,25.73
2018-09-09T13:36:13.084Z,25.73
2018-09-09T13:37:21.689Z,25.71
2018-09-09T13:38:29.238Z,25.62
2018-09-09T13:39:37.332Z,25.59
2018-09-09T13:40:45.962Z,25.59
2018-09-09T13:41:53.447Z,25.56
2018-09-09T13:43:01.731Z,25.62
2018-09-09T13:44:09.600Z,25.56
2018-09-09T13:45:17.864Z,25.56
2018-09-09T13:46:25.945Z,25.58
2018-09-09T13:47:34.290Z,25.52
2018-09-09T13:48:42.073Z,25.54
2018-09-09T13:49:50.168Z,25.58
2018-09-09T13:50:58.211Z,25.59
2018-09-09T13:52:06.296Z,25.59
2018-09-09T13:53:14.462Z,25.61
2018-09-09T13:54:22.436Z,25.68
2018-09-09T13:55:30.503Z,25.68
2018-09-09T13:56:38.682Z,25.61
2018-09-09T13:57:46.665Z,25.62
2018-09-09T13:58:54.731Z,25.55
2018-09-09T14:00:02.792Z,25.58
2018-09-09T14:01:11.139Z,25.51
2018-09-09T14:02:18.952Z,25.43
2018-09-09T14:03:27.039Z,25.33
2018-09-09T14:04:35.084Z,25.37
2018-09-09T14:05:43.152Z,25.37
2018-09-09T14:06:51.224Z,25.29
2018-09-09T14:07:59.299Z,25.24
2018-09-09T14:09:07.376Z,25.15
2018-09-09T14:10:15.522Z,25.12
2018-09-09T14:11:23.511Z,25.16
2018-09-09T14:12:31.568Z,25.15
2018-09-09T14:13:39.666Z,25.03
2018-09-09T14:14:47.722Z,25.07
2018-09-09T14:15:55.793Z,25.04
2018-09-09T14:17:03.878Z,25.11
2018-09-09T14:18:12.151Z,25.00
2018-09-09T14:19:20.214Z,25.04
2018-09-09T14:20:28.283Z,25.04
2018-09-09T14:21:36.351Z,24.93
2018-09-09T14:22:44.584Z,25.01
2018-09-09T14:23:52.582Z,24.96
2018-09-09T14:25:00.951Z,25.06
2018-09-09T14:26:08.651Z,24.96
2018-09-09T14:27:16.707Z,24.94
2018-09-09T14:28:24.991Z,24.96
2018-09-09T14:29:33.289Z,25.06
2018-09-09T14:30:41.130Z,25.03
2018-09-09T14:31:49.209Z,25.09
2018-09-09T14:32:57.281Z,25.09
2018-09-09T14:34:05.372Z,25.04
2018-09-09T14:35:13.409Z,25.09
2018-09-09T14:36:21.474Z,25.11
2018-09-09T14:37:29.556Z,25.09
2018-09-09T14:38:37.620Z,25.12
2018-09-09T14:39:45.684Z,25.07
2018-09-09T14:40:53.778Z,25.12
2018-09-09T14:42:01.853Z,25.14
2018-09-09T14:43:09.902Z,25.11
2018-09-09T14:44:18.004Z,25.12
2018-09-09T14:45:26.048Z,25.09
2018-09-09T14:46:34.124Z,25.07
2018-09-09T14:47:42.191Z,25.14
2018-09-09T14:48:50.255Z,25.09
2018-09-09T14:49:58.357Z,25.14
2018-09-09T14:51:06.408Z,25.09
2018-09-09T14:52:14.482Z,25.12
2018-09-09T14:53:22.584Z,25.07
2018-09-09T14:54:30.621Z,25.07
2018-09-09T14:55:38.692Z,25.07
2018-09-09T14:56:48.009Z,25.07
2018-09-09T14:57:55.045Z,25.06
2018-09-09T14:59:03.112Z,25.00
2018-09-09T15:00:11.188Z,25.00
2018-09-09T15:01:19.259Z,24.96
2018-09-09T15:02:27.315Z,24.93
2018-09-09T15:03:35.409Z,25.00
2018-09-09T15:04:43.486Z,24.89
2018-09-09T15:05:51.537Z,24.96
2018-09-09T15:06:59.645Z,24.93
2018-09-09T15:08:07.686Z,24.86
2018-09-09T15:09:15.756Z,24.86
2018-09-09T15:10:23.814Z,24.86
2018-09-09T15:11:31.875Z,24.84
2018-09-09T15:12:39.963Z,24.84
2018-09-09T15:13:48.002Z,24.77
2018-09-09T15:14:56.108Z,24.79
2018-09-09T15:16:04.192Z,24.75
2018-09-09T15:17:12.485Z,24.78
2018-09-09T15:18:20.311Z,24.75
2018-09-09T15:19:28.393Z,24.69
2018-09-09T15:20:36.450Z,24.74
2018-09-09T15:21:44.519Z,24.77
2018-09-09T15:22:52.577Z,24.77
2018-09-09T15:24:00.751Z,24.68
2018-09-09T15:25:08.739Z,24.68
2018-09-09T15:26:16.904Z,24.69
2018-09-09T15:27:24.874Z,24.63
2018-09-09T15:28:32.940Z,24.63
2018-09-09T15:29:41.030Z,24.74
2018-09-09T15:30:49.087Z,24.62
2018-09-09T15:31:57.177Z,24.63
2018-09-09T15:33:05.250Z,24.58
2018-09-09T15:34:13.320Z,24.56
2018-09-09T15:35:21.389Z,24.59
2018-09-09T15:36:29.444Z,24.56
2018-09-09T15:37:37.500Z,24.59
2018-09-09T15:38:45.584Z,24.62
2018-09-09T15:41:01.936Z,24.58
2018-09-09T15:42:10.008Z,24.59
2018-09-09T15:43:18.093Z,24.59
2018-09-09T15:44:26.371Z,24.55
2018-09-09T15:45:34.291Z,24.53
2018-09-09T15:46:42.287Z,24.48
2018-09-09T15:47:50.403Z,24.44
2018-09-09T15:48:58.624Z,24.48
2018-09-09T15:50:11.041Z,24.38
2018-09-09T15:51:19.272Z,24.38
2018-09-09T15:52:27.086Z,24.31
2018-09-09T15:53:35.118Z,24.26
2018-09-09T15:54:43.195Z,24.22
2018-09-09T15:55:51.291Z,24.21
2018-09-09T15:56:59.380Z,24.21
2018-09-09T15:58:07.449Z,24.13
2018-09-09T15:59:15.747Z,24.13
2018-09-09T16:00:23.610Z,24.14
2018-09-09T16:01:31.713Z,24.04
2018-09-09T16:02:39.712Z,24.13
2018-09-09T16:03:48.035Z,24.04
2018-09-09T16:04:55.877Z,24.09
2018-09-09T16:06:03.918Z,24.09
2018-09-09T16:08:22.668Z,23.99
2018-09-09T16:09:30.738Z,23.95
2018-09-09T16:10:38.827Z,23.92
2018-09-09T16:11:48.199Z,23.94
2018-09-09T16:12:55.264Z,23.95
2018-09-09T16:14:03.643Z,23.88
2018-09-09T16:15:11.304Z,23.86
2018-09-09T16:16:19.372Z,23.84
2018-09-09T16:17:27.437Z,23.82
2018-09-09T16:18:35.524Z,23.76
2018-09-09T16:19:43.773Z,23.74
2018-09-09T16:20:51.846Z,23.77
2018-09-09T16:21:59.920Z,23.73
2018-09-09T16:23:08.063Z,23.69
2018-09-09T16:24:16.213Z,23.66
2018-09-09T16:25:24.114Z,23.55
2018-09-09T16:26:32.200Z,23.58
2018-09-09T16:27:40.395Z,23.54
2018-09-09T16:28:48.366Z,23.42
2018-09-09T16:29:56.773Z,23.37
2018-09-09T16:31:04.462Z,23.33
2018-09-09T16:32:12.788Z,23.33
2018-09-09T16:33:20.657Z,23.36
2018-09-09T16:34:28.710Z,23.32
2018-09-09T16:35:36.780Z,23.23
2018-09-09T16:36:44.824Z,23.16
2018-09-09T16:37:52.896Z,23.18
2018-09-09T16:39:00.971Z,23.11
2018-09-09T16:40:09.071Z,23.07
2018-09-09T16:41:17.103Z,22.95
2018-09-09T16:42:25.181Z,22.91
2018-09-09T16:43:33.267Z,22.86
2018-09-09T16:44:41.317Z,22.86
2018-09-09T16:45:49.374Z,22.77
2018-09-09T16:46:57.463Z,22.80
2018-09-09T16:48:05.644Z,22.76
2018-09-09T16:49:13.609Z,22.65
2018-09-09T16:50:21.706Z,22.62
2018-09-09T16:51:29.727Z,22.59
2018-09-09T16:52:37.808Z,22.55
2018-09-09T16:53:45.869Z,22.55
2018-09-09T16:54:54.241Z,22.52
2018-09-09T16:56:02.312Z,22.41
2018-09-09T16:57:10.096Z,22.26
2018-09-09T16:58:18.141Z,22.16
2018-09-09T16:59:26.219Z,22.06
2018-09-09T17:00:34.544Z,21.92
2018-09-09T17:01:42.390Z,21.91
2018-09-09T17:02:50.435Z,21.80
2018-09-09T17:03:58.787Z,21.74
2018-09-09T17:05:06.620Z,21.65
2018-09-09T17:06:14.663Z,21.58
2018-09-09T17:07:22.717Z,21.50
2018-09-09T17:08:30.803Z,21.32
2018-09-09T17:09:38.884Z,21.23
2018-09-09T17:10:47.206Z,21.17
2018-09-09T17:11:55.194Z,21.03
2018-09-09T17:13:03.278Z,20.96
2018-09-09T17:14:11.388Z,20.82
2018-09-09T17:15:19.474Z,20.71
2018-09-09T17:16:27.483Z,20.64
2018-09-09T17:17:35.525Z,20.53
2018-09-09T17:18:43.624Z,20.44
2018-09-09T17:19:51.682Z,20.30
2018-09-09T17:20:59.756Z,20.18
2018-09-09T17:22:07.852Z,20.14
2018-09-09T17:23:15.873Z,20.07
2018-09-09T17:24:23.966Z,19.92
2018-09-09T17:25:32.029Z,19.85
2018-09-09T17:26:40.217Z,19.74
2018-09-09T17:27:48.159Z,19.70
2018-09-09T17:29:00.566Z,19.63
2018-09-09T17:30:08.548Z,19.64
2018-09-09T17:31:16.610Z,19.48
2018-09-09T17:32:24.669Z,19.35
2018-09-09T17:33:32.728Z,19.30
2018-09-09T17:34:40.859Z,19.11
2018-09-09T17:35:53.124Z,19.08
2018-09-09T17:37:01.206Z,18.97
2018-09-09T17:38:09.261Z,18.98
2018-09-09T17:39:17.304Z,18.94
2018-09-09T17:40:25.392Z,18.86
2018-09-09T17:41:33.445Z,18.83
2018-09-09T17:42:41.524Z,18.83
2018-09-09T17:43:49.610Z,18.79
2018-09-09T17:44:57.753Z,18.73
2018-09-09T17:46:05.738Z,18.71
2018-09-09T17:47:13.795Z,18.66
2018-09-09T17:48:21.918Z,18.60
2018-09-09T17:49:29.939Z,18.51
2018-09-09T17:50:38.005Z,18.37
2018-09-09T17:51:46.077Z,18.31
2018-09-09T17:52:54.164Z,18.23
2018-09-09T17:54:02.286Z,18.18
2018-09-09T17:55:10.285Z,18.16
2018-09-09T17:56:18.373Z,18.05
2018-09-09T17:57:26.394Z,18.03
2018-09-09T17:58:34.473Z,17.86
2018-09-09T17:59:42.562Z,17.75
2018-09-09T18:00:50.590Z,17.73
2018-09-09T18:01:58.684Z,17.71
2018-09-09T18:03:06.726Z,17.63
2018-09-09T18:04:14.802Z,17.50
2018-09-09T18:05:22.865Z,17.53
2018-09-09T18:06:30.941Z,17.46
2018-09-09T18:07:38.999Z,17.39
2018-09-09T18:08:47.072Z,17.37
2018-09-09T18:09:55.129Z,17.27
2018-09-09T18:11:05.680Z,17.12
2018-09-09T18:12:11.505Z,17.12
2018-09-09T18:13:22.185Z,17.07
2018-09-09T18:14:30.241Z,17.05
2018-09-09T18:15:38.294Z,17.01
2018-09-09T18:16:46.358Z,16.94
2018-09-09T18:17:54.717Z,16.80
2018-09-09T18:19:02.557Z,16.79
2018-09-09T18:20:10.833Z,16.69
2018-09-09T18:21:21.257Z,16.62
2018-09-09T18:22:30.707Z,16.66
2018-09-09T18:23:38.785Z,16.54
2018-09-09T18:24:46.871Z,16.57
2018-09-09T18:25:56.504Z,16.55
2018-09-09T18:28:18.966Z,16.39
2018-09-09T18:29:26.764Z,16.44
2018-09-09T18:30:34.845Z,16.39
2018-09-09T18:31:42.898Z,16.36
2018-09-09T18:32:50.974Z,16.31
2018-09-09T18:33:59.026Z,16.22
2018-09-09T18:35:07.177Z,16.21
2018-09-09T18:36:15.145Z,16.24
2018-09-09T18:37:23.426Z,16.09
2018-09-09T18:38:31.487Z,16.08
2018-09-09T18:39:39.580Z,15.92
2018-09-09T18:40:47.874Z,16.02
2018-09-09T18:41:55.669Z,15.98
2018-09-09T18:43:03.744Z,16.00
2018-09-09T18:44:11.813Z,15.98
2018-09-09T18:45:19.881Z,16.02
2018-09-09T18:46:28.228Z,15.96
2018-09-09T18:47:53.972Z,15.90
2018-09-09T18:48:44.678Z,15.88
2018-09-09T18:49:52.719Z,15.90
2018-09-09T18:51:02.818Z,15.88
2018-09-09T18:52:08.874Z,15.87
2018-09-09T18:53:17.389Z,15.84
2018-09-09T18:54:25.210Z,15.85
2018-09-09T18:56:50.434Z,15.83
2018-09-09T18:59:15.640Z,15.75
2018-09-09T19:00:23.699Z,15.63
2018-09-09T19:01:31.761Z,15.62
2018-09-09T19:02:39.820Z,15.63
2018-09-09T19:03:47.879Z,15.63
2018-09-09T19:04:55.951Z,15.63
2018-09-09T19:06:04.058Z,15.54
2018-09-09T19:07:12.087Z,15.62
2018-09-09T19:08:20.247Z,15.62
2018-09-09T19:09:28.341Z,15.59
2018-09-09T19:10:36.284Z,15.55
2018-09-09T19:11:44.681Z,15.52
2018-09-09T19:12:52.421Z,15.47
2018-09-09T19:14:00.540Z,15.48
2018-09-09T19:15:08.555Z,15.32
2018-09-09T19:16:16.635Z,15.27
2018-09-09T19:17:24.683Z,15.30
2018-09-09T19:18:33.271Z,15.19
2018-09-09T19:19:41.282Z,15.22
2018-09-09T19:20:48.855Z,15.26
2018-09-09T19:21:56.984Z,15.17
2018-09-09T19:23:05.002Z,15.23
2018-09-09T19:24:13.120Z,15.26
2018-09-09T19:25:22.170Z,15.17
2018-09-09T19:26:29.220Z,15.18
2018-09-09T19:27:37.301Z,15.11
2018-09-09T19:28:45.339Z,15.11
2018-09-09T19:29:53.375Z,15.10
2018-09-09T19:31:01.433Z,15.02
2018-09-09T19:32:09.525Z,15.19
2018-09-09T19:33:17.612Z,15.02
2018-09-09T19:34:25.950Z,15.00
2018-09-09T19:35:33.810Z,14.97
2018-09-09T19:36:41.791Z,14.94
2018-09-09T19:37:49.827Z,14.85
2018-09-09T19:38:57.981Z,14.89
2018-09-09T19:40:06.009Z,14.77
2018-09-09T19:41:14.026Z,14.71
2018-09-09T19:42:22.097Z,14.81
2018-09-09T19:43:30.374Z,14.87
2018-09-09T19:44:38.463Z,14.66
2018-09-09T19:45:46.484Z,14.67
2018-09-09T19:46:54.576Z,14.66
2018-09-09T19:48:02.615Z,14.68
2018-09-09T19:49:10.676Z,14.59
2018-09-09T19:50:18.749Z,14.61
2018-09-09T19:51:26.810Z,14.58
2018-09-09T19:52:34.887Z,14.56
2018-09-09T19:53:42.909Z,14.51
2018-09-09T19:54:51.183Z,14.45
2018-09-09T19:55:59.276Z,14.48
2018-09-09T19:57:07.357Z,14.43
2018-09-09T19:58:15.423Z,14.34
2018-09-09T19:59:23.453Z,14.36
2018-09-09T20:00:31.511Z,14.33
2018-09-09T20:01:39.909Z,14.22
2018-09-09T20:02:47.678Z,14.34
2018-09-09T20:03:55.722Z,14.33
2018-09-09T20:05:09.432Z,14.20
2018-09-09T20:06:17.512Z,14.26
2018-09-09T20:07:25.585Z,14.34
2018-09-09T20:08:33.617Z,14.30
2018-09-09T20:09:41.675Z,14.34
2018-09-09T20:10:49.783Z,14.23
2018-09-09T20:11:57.799Z,14.25
2018-09-09T20:13:05.864Z,14.26
2018-09-09T20:14:13.932Z,14.26
2018-09-09T20:15:22.012Z,14.23
2018-09-09T20:16:30.072Z,14.20
2018-09-09T20:17:38.116Z,14.19
2018-09-09T20:18:46.213Z,14.22
2018-09-09T20:19:59.795Z,14.22
2018-09-09T20:21:07.774Z,14.18
2018-09-09T20:22:15.835Z,14.18
2018-09-09T20:23:25.509Z,14.15
2018-09-09T20:24:33.579Z,14.18
2018-09-09T20:25:41.675Z,14.23
2018-09-09T20:26:49.705Z,14.19
2018-09-09T20:27:57.770Z,14.18
2018-09-09T20:29:05.845Z,14.07
2018-09-09T20:30:13.869Z,14.11
2018-09-09T20:31:21.951Z,14.05
2018-09-09T20:32:30.073Z,14.08
2018-09-09T20:33:38.048Z,14.12
2018-09-09T20:34:46.141Z,14.11
2018-09-09T20:35:54.197Z,14.13
2018-09-09T20:37:02.284Z,14.12
2018-09-09T20:38:10.363Z,14.07
2018-09-09T20:39:18.381Z,14.11
2018-09-09T20:40:26.463Z,14.08
2018-09-09T20:41:34.503Z,14.08
2018-09-09T20:42:42.853Z,14.05
2018-09-09T20:43:50.680Z,14.16
2018-09-09T20:44:58.700Z,14.16
2018-09-09T20:46:06.796Z,14.12
2018-09-09T20:47:14.838Z,14.15
2018-09-09T20:48:22.889Z,14.16
2018-09-09T20:49:30.983Z,14.05
2018-09-09T20:50:39.030Z,14.16
2018-09-09T20:51:47.100Z,14.15
2018-09-09T20:52:55.153Z,14.05
2018-09-09T20:54:03.248Z,14.04
2018-09-09T20:55:11.286Z,14.00
2018-09-09T20:56:19.326Z,14.01
2018-09-09T20:57:27.746Z,13.93
2018-09-09T20:58:35.807Z,13.86
2018-09-09T20:59:43.871Z,13.85
2018-09-09T21:00:51.792Z,13.79
2018-09-09T21:01:59.975Z,13.85
2018-09-09T21:03:08.036Z,13.83
2018-09-09T21:04:15.789Z,13.76
2018-09-09T21:05:23.864Z,13.71
2018-09-09T21:06:31.946Z,13.71
2018-09-09T21:07:40.049Z,13.73
2018-09-09T21:08:48.061Z,13.67
2018-09-09T21:09:56.118Z,13.65
2018-09-09T21:11:04.532Z,13.57
2018-09-09T21:12:12.548Z,13.62
2018-09-09T21:13:20.307Z,13.58
2018-09-09T21:14:28.433Z,13.54
2018-09-09T21:15:36.426Z,13.50
2018-09-09T21:16:44.590Z,13.46
2018-09-09T21:17:52.557Z,13.55
2018-09-09T21:19:00.647Z,13.52
2018-09-09T21:20:08.696Z,13.46
2018-09-09T21:21:16.760Z,13.46
2018-09-09T21:22:24.814Z,13.47
2018-09-09T21:23:32.891Z,13.46
2018-09-09T21:24:40.946Z,13.36
2018-09-09T21:25:49.231Z,13.39
2018-09-09T21:26:57.276Z,13.45
2018-09-09T21:28:05.335Z,13.37
2018-09-09T21:29:13.400Z,13.45
2018-09-09T21:30:21.447Z,13.37
2018-09-09T21:31:29.508Z,13.37
2018-09-09T21:32:37.917Z,13.40
2018-09-09T21:33:45.664Z,13.28
2018-09-09T21:34:53.742Z,13.39
2018-09-09T21:36:01.799Z,13.40
2018-09-09T21:37:10.057Z,13.28
2018-09-09T21:38:18.135Z,13.31
2018-09-09T21:39:26.488Z,13.26
2018-09-09T21:40:34.243Z,13.26
2018-09-09T21:41:43.667Z,13.21
2018-09-09T21:42:50.392Z,13.31